Time;durP1;ratioP1;P1;durP2;ratioP2;P2;SDS_P1;SDS_P2;PMS_P1;PMS_P2;Temp;Humidity;BMP_temperature;BMP_pressure;BME280_temperature;BME280_humidity;BME280_pressure;Samples;Min_cycle;Max_cycle;Signal;HPM_P1;HPM_P2
2023/04/22 00:01:43;;;;;;;;;20.00;18.50;;;;;13.11;46.31;100233.50;5128264;27;45235;-59
2023/04/22 00:04:08;;;;;;;;;24.25;22.75;;;;;13.21;45.92;100248.16;5121183;27;45328;-59
2023/04/22 00:06:34;;;;;;;;;23.25;22.25;;;;;13.14;46.02;100241.41;5103937;27;46962;-59
2023/04/22 00:09:00;;;;;;;;;22.50;19.00;;;;;13.23;46.21;100261.50;5135052;27;45309;-59
2023/04/22 00:11:25;;;;;;;;;19.75;18.00;;;;;13.12;45.91;100249.50;5136607;27;45321;-59
2023/04/22 00:13:51;;;;;;;;;23.25;20.75;;;;;13.10;45.71;100255.91;5133699;27;45353;-59
2023/04/22 00:16:16;;;;;;;;;23.75;22.50;;;;;13.08;46.01;100253.31;5131565;27;45588;-59
2023/04/22 00:18:42;;;;;;;;;25.75;23.75;;;;;13.12;45.82;100259.38;5129349;27;45343;-59
2023/04/22 00:21:07;;;;;;;;;23.50;21.25;;;;;13.01;45.80;100249.19;5142105;27;45495;-59
2023/04/22 00:23:32;;;;;;;;;19.75;18.25;;;;;13.04;46.32;100251.72;5137736;27;45485;-59
2023/04/22 00:25:59;;;;;;;;;25.50;21.50;;;;;12.99;46.42;100251.06;5122110;27;46279;-59
2023/04/22 00:28:24;;;;;;;;;26.50;23.50;;;;;13.00;46.23;100249.25;5121654;27;45688;-59
2023/04/22 00:30:49;;;;;;;;;24.00;23.75;;;;;13.10;46.49;100264.81;5121359;27;45364;-59
2023/04/22 00:33:15;;;;;;;;;19.75;18.25;;;;;13.10;46.58;100258.59;5135555;27;45325;-59
2023/04/22 00:35:40;;;;;;;;;23.25;20.50;;;;;12.99;46.46;100243.03;5121537;27;46432;-59
2023/04/22 00:38:05;;;;;;;;;26.00;23.00;;;;;13.08;46.36;100253.31;5121387;27;45376;-59
2023/04/22 00:40:31;;;;;;;;;23.50;22.75;;;;;12.97;46.25;100243.09;5121769;27;45348;-59
2023/04/22 00:42:58;;;;;;;;;19.00;15.00;;;;;13.01;46.35;100245.63;5124905;27;45504;-59
2023/04/22 00:45:25;;;;;;;;;25.00;24.25;;;;;13.03;46.31;100255.34;5121717;27;46282;-59
2023/04/22 00:47:51;;;;;;;;;21.75;20.00;;;;;12.89;46.60;100239.94;5135182;27;45312;-59
2023/04/22 00:50:17;;;;;;;;;24.25;23.00;;;;;13.01;46.56;100272.44;5121656;27;45535;-59
2023/04/22 00:52:42;;;;;;;;;25.25;23.00;;;;;12.87;46.42;100257.91;5130193;27;45430;-59
2023/04/22 00:55:08;;;;;;;;;23.25;21.00;;;;;12.87;46.59;100259.72;5132780;27;45270;-59
2023/04/22 00:57:34;;;;;;;;;22.25;20.50;;;;;12.77;46.62;100244.09;5136872;27;45487;-59
2023/04/22 01:00:00;;;;;;;;;21.25;19.00;;;;;12.88;46.78;100251.63;5121272;27;45364;-59
2023/04/22 01:02:25;;;;;;;;;23.00;21.25;;;;;12.84;46.76;100222.38;5133659;27;45373;-59
2023/04/22 01:04:53;;;;;;;;;19.50;19.50;;;;;12.86;46.78;100224.03;5102884;27;46661;-59
2023/04/22 01:07:19;;;;;;;;;21.00;17.25;;;;;12.77;46.61;100205.75;5120479;27;45318;-59
2023/04/22 01:09:44;;;;;;;;;24.50;21.00;;;;;12.76;46.77;100207.56;5121402;27;45380;-59
2023/04/22 01:12:10;;;;;;;;;21.25;19.50;;;;;12.70;46.97;100207.88;5122898;27;45302;-59
2023/04/22 01:14:36;;;;;;;;;23.00;21.50;;;;;12.75;47.12;100207.66;5126054;27;45423;-59
2023/04/22 01:17:01;;;;;;;;;22.00;19.25;;;;;12.74;46.87;100205.91;5107467;27;46275;-59
2023/04/22 01:19:28;;;;;;;;;24.25;21.25;;;;;12.65;46.96;100183.13;5108718;27;45428;-59
2023/04/22 01:21:54;;;;;;;;;22.50;20.00;;;;;12.69;47.12;100184.69;5100692;27;45376;-59
2023/04/22 01:24:20;;;;;;;;;20.00;18.00;;;;;12.77;46.84;100197.72;5100333;27;46471;-59
2023/04/22 01:26:46;;;;;;;;;22.00;21.75;;;;;12.55;46.75;100172.00;5100001;27;45443;-59
2023/04/22 01:29:13;;;;;;;;;20.00;20.00;;;;;12.65;46.93;100182.28;5100399;27;45354;-59
2023/04/22 01:31:38;;;;;;;;;22.25;21.25;;;;;12.64;46.82;100170.69;5103473;27;45357;-59
2023/04/22 01:34:04;;;;;;;;;23.50;20.00;;;;;12.68;46.92;100191.03;5107666;27;45442;-59
2023/04/22 01:36:31;;;;;;;;;21.25;18.75;;;;;12.69;47.02;100192.72;5099598;27;45338;-59
2023/04/22 01:38:57;;;;;;;;;23.25;21.50;;;;;12.67;47.12;100196.44;5098863;27;45316;-59
2023/04/22 01:41:23;;;;;;;;;23.75;22.00;;;;;12.66;47.64;100190.19;5101008;27;45444;-59
2023/04/22 01:43:50;;;;;;;;;24.25;22.50;;;;;12.60;47.24;100180.69;5107215;27;45407;-59
2023/04/22 01:46:16;;;;;;;;;21.25;20.75;;;;;12.60;47.35;100178.00;5104947;27;45401;-59
2023/04/22 01:48:42;;;;;;;;;19.25;17.50;;;;;12.64;47.19;100185.88;5108195;27;45322;-59
2023/04/22 01:51:07;;;;;;;;;23.75;23.25;;;;;12.54;47.28;100172.94;5099451;27;45432;-59
2023/04/22 01:53:34;;;;;;;;;22.75;21.25;;;;;12.55;47.22;100165.81;5105582;27;46688;-59
2023/04/22 01:56:00;;;;;;;;;21.00;19.25;;;;;12.52;47.51;100160.59;5105419;27;45360;-59
2023/04/22 01:58:28;;;;;;;;;23.25;18.25;;;;;12.53;47.54;100152.50;5116610;27;45617;-59
2023/04/22 02:00:53;;;;;;;;;16.25;13.50;;;;;12.38;47.39;100130.03;5106146;27;45350;-59
2023/04/22 02:03:19;;;;;;;;;14.75;14.25;;;;;12.40;47.46;100130.81;5099699;27;46108;-59
2023/04/22 02:05:44;;;;;;;;;19.25;14.00;;;;;12.49;47.67;100136.66;5099347;27;45309;-59
2023/04/22 02:08:10;;;;;;;;;22.25;19.25;;;;;12.45;47.65;100127.91;5109139;27;45987;-59
2023/04/22 02:10:35;;;;;;;;;19.50;19.25;;;;;12.46;47.88;100134.13;5099935;27;47913;-59
2023/04/22 02:13:00;;;;;;;;;22.00;20.50;;;;;12.41;47.92;100129.00;5099435;27;45377;-59
2023/04/22 02:15:26;;;;;;;;;20.00;19.00;;;;;12.41;47.84;100132.56;5102570;27;45329;-59
2023/04/22 02:17:51;;;;;;;;;19.50;16.25;;;;;12.35;48.03;100135.53;5127531;27;46022;-59
2023/04/22 02:20:17;;;;;;;;;20.00;17.50;;;;;12.38;48.52;100122.00;5102269;27;46094;-59
2023/04/22 02:22:43;;;;;;;;;24.50;23.00;;;;;12.38;48.51;100127.34;5120348;27;46308;-59
2023/04/22 02:25:11;;;;;;;;;24.75;22.25;;;;;12.36;49.06;100131.03;5123671;27;45549;-59
2023/04/22 02:27:36;;;;;;;;;20.25;18.00;;;;;12.38;49.42;100145.22;5128732;27;45614;-59
2023/04/22 02:30:02;;;;;;;;;21.00;18.50;;;;;12.35;49.23;100143.56;5124120;27;45418;-59
2023/04/22 02:32:28;;;;;;;;;20.50;18.00;;;;;12.41;49.59;100145.94;5136988;27;45554;-59
2023/04/22 02:34:53;;;;;;;;;18.25;18.25;;;;;12.30;49.71;100131.34;5137901;27;45471;-59
2023/04/22 02:37:20;;;;;;;;;20.75;19.75;;;;;12.46;49.76;100145.69;5125463;27;45360;-59
2023/04/22 02:39:45;;;;;;;;;23.75;23.25;;;;;12.32;49.82;100116.06;5123673;27;45570;-59
2023/04/22 02:42:11;;;;;;;;;21.75;21.75;;;;;12.47;50.07;100138.53;5123347;27;46264;-59
2023/04/22 02:44:36;;;;;;;;;25.50;23.50;;;;;12.52;50.34;100142.72;5125667;27;45405;-59
2023/04/22 02:47:02;;;;;;;;;25.75;23.25;;;;;12.38;50.40;100123.81;5133965;27;46974;-59
2023/04/22 02:49:28;;;;;;;;;20.00;19.50;;;;;12.54;50.46;100148.00;5123882;27;45348;-59
2023/04/22 02:51:53;;;;;;;;;22.25;21.25;;;;;12.46;50.98;100137.66;5135077;27;46079;-59
2023/04/22 02:54:18;;;;;;;;;23.25;19.50;;;;;12.45;50.90;100129.72;5108228;27;45311;-59
2023/04/22 02:56:44;;;;;;;;;20.25;17.25;;;;;12.46;51.27;100131.44;5132103;27;45292;-59
2023/04/22 02:59:10;;;;;;;;;24.50;22.00;;;;;12.50;51.18;100135.72;5134805;27;45521;-59
2023/04/22 03:01:35;;;;;;;;;24.25;23.00;;;;;12.60;51.24;100137.84;5135203;27;45412;-59
2023/04/22 03:04:01;;;;;;;;;24.75;22.75;;;;;12.63;51.20;100130.59;5124463;27;47504;-59
2023/04/22 03:06:26;;;;;;;;;26.75;25.75;;;;;12.55;51.10;100114.94;5123115;27;45686;-59
2023/04/22 03:08:51;;;;;;;;;27.00;23.25;;;;;12.51;51.24;100105.31;5132113;27;45309;-59
2023/04/22 03:11:17;;;;;;;;;29.50;23.00;;;;;12.48;51.43;100102.78;5123036;27;45348;-59
2023/04/22 03:13:42;;;;;;;;;19.00;19.00;;;;;12.48;51.53;100119.72;5122983;27;45597;-59
2023/04/22 03:16:07;;;;;;;;;29.50;26.25;;;;;12.42;51.66;100109.31;5111295;27;45493;-59
2023/04/22 03:18:33;;;;;;;;;22.25;21.25;;;;;12.33;52.03;100089.25;5135308;27;45354;-59
2023/04/22 03:20:59;;;;;;;;;28.25;27.25;;;;;12.22;52.14;100078.19;5122599;27;45461;-59
2023/04/22 03:23:25;;;;;;;;;29.25;24.00;;;;;12.19;52.31;100073.84;5122640;27;45736;-59
2023/04/22 03:25:50;;;;;;;;;29.75;27.25;;;;;12.18;52.69;100073.97;5104375;27;45400;-59
2023/04/22 03:28:16;;;;;;;;;31.00;25.50;;;;;12.04;52.83;100063.91;5107409;27;45665;-59
2023/04/22 03:30:41;;;;;;;;;26.25;24.25;;;;;12.07;52.76;100068.28;5103704;27;59650;-59
2023/04/22 03:33:06;;;;;;;;;29.75;25.25;;;;;12.00;53.20;100054.31;5122446;27;47919;-59
2023/04/22 03:35:32;;;;;;;;;26.75;24.00;;;;;12.02;53.39;100055.97;5121881;27;45356;-59
2023/04/22 03:37:57;;;;;;;;;24.00;22.75;;;;;12.08;53.61;100076.22;5104079;27;45510;-59
2023/04/22 03:40:22;;;;;;;;;27.25;26.75;;;;;11.99;53.85;100071.31;5122478;27;45378;-59
2023/04/22 03:42:47;;;;;;;;;28.50;26.25;;;;;12.09;53.53;100075.25;5122499;27;45416;-59
2023/04/22 03:45:13;;;;;;;;;29.50;27.00;;;;;11.81;53.90;100033.81;5122554;27;45620;-59
2023/04/22 03:47:38;;;;;;;;;33.25;28.75;;;;;12.15;53.96;100091.00;5134516;27;45263;-59
2023/04/22 03:50:04;;;;;;;;;31.50;29.75;;;;;12.13;54.26;100071.50;5122291;27;45341;-59
2023/04/22 03:52:30;;;;;;;;;26.75;21.00;;;;;12.17;53.92;100073.06;5103531;27;45333;-59
2023/04/22 03:54:55;;;;;;;;;28.00;24.25;;;;;12.17;54.31;100062.38;5122149;27;48790;-59
2023/04/22 03:57:20;;;;;;;;;28.75;24.25;;;;;12.16;54.16;100044.59;5103719;27;45417;-59
2023/04/22 03:59:46;;;;;;;;;35.25;31.25;;;;;12.14;54.11;100024.19;5121302;27;46393;-59
2023/04/22 04:02:11;;;;;;;;;30.75;25.75;;;;;12.13;53.97;100026.03;5103663;27;45316;-59
2023/04/22 04:04:36;;;;;;;;;23.50;22.25;;;;;12.09;54.34;100048.50;5130386;27;45506;-59
2023/04/22 04:07:02;;;;;;;;;27.25;23.50;;;;;12.23;54.46;100079.94;5121559;27;45484;-59
2023/04/22 04:09:27;;;;;;;;;28.50;25.00;;;;;12.19;54.69;100070.31;5131968;27;45695;-59
2023/04/22 04:11:52;;;;;;;;;33.00;29.25;;;;;12.30;54.72;100065.31;5125596;27;45290;-59
2023/04/22 04:14:18;;;;;;;;;25.75;24.00;;;;;12.28;54.49;100042.22;5103709;27;45427;-59
2023/04/22 04:16:43;;;;;;;;;22.75;22.00;;;;;12.34;54.83;100036.56;5127562;27;55817;-59
2023/04/22 04:19:09;;;;;;;;;33.25;31.50;;;;;12.27;55.31;100008.41;5125574;27;46347;-59
2023/04/22 04:21:35;;;;;;;;;30.25;27.25;;;;;12.27;55.59;99993.22;5134700;27;45502;-59
2023/04/22 04:24:01;;;;;;;;;32.00;30.25;;;;;12.24;56.19;99993.34;5121972;27;45382;-59
2023/04/22 04:26:27;;;;;;;;;33.75;29.00;;;;;12.15;56.47;99996.53;5121736;27;45447;-59
2023/04/22 04:28:52;;;;;;;;;33.00;31.75;;;;;12.06;56.65;99987.13;5124399;27;45807;-59
2023/04/22 04:31:18;;;;;;;;;30.25;27.75;;;;;12.07;56.73;99991.53;5121734;27;45439;-59
2023/04/22 04:33:43;;;;;;;;;27.75;26.25;;;;;12.06;56.88;100000.50;5102544;27;45518;-59
2023/04/22 04:36:09;;;;;;;;;28.50;25.75;;;;;12.03;57.16;100017.59;5135201;27;45541;-59
2023/04/22 04:38:34;;;;;;;;;31.00;24.00;;;;;12.01;57.32;100034.66;5123545;27;45346;-59
2023/04/22 04:41:00;;;;;;;;;30.00;27.25;;;;;12.14;57.76;100043.78;5121598;27;45567;-59
2023/04/22 04:43:25;;;;;;;;;31.00;29.75;;;;;12.07;58.00;99996.91;5121730;27;45604;-59
2023/04/22 04:45:52;;;;;;;;;29.50;27.25;;;;;12.16;58.15;99993.78;5121450;27;45364;-59
2023/04/22 04:48:18;;;;;;;;;38.25;33.75;;;;;12.14;58.28;100008.16;5140080;27;47228;-59
2023/04/22 04:50:44;;;;;;;;;30.75;28.75;;;;;12.11;58.91;100035.06;5126080;27;45739;-59
2023/04/22 04:53:10;;;;;;;;;34.00;30.25;;;;;12.10;59.09;100020.81;5111858;27;45435;-59
2023/04/22 04:55:36;;;;;;;;;32.00;30.50;;;;;12.01;59.80;100002.53;5140127;27;45434;-59
2023/04/22 04:58:02;;;;;;;;;31.50;31.00;;;;;12.02;60.61;100007.81;5104745;27;47874;-59
2023/04/22 05:00:27;;;;;;;;;40.00;35.00;;;;;11.86;60.81;99946.19;5127983;27;45383;-59
2023/04/22 05:02:53;;;;;;;;;39.25;32.50;;;;;11.82;61.52;99982.03;5121511;27;45357;-59
2023/04/22 05:05:18;;;;;;;;;35.50;31.25;;;;;11.91;61.78;99991.47;5123114;27;45515;-59
2023/04/22 05:07:44;;;;;;;;;37.00;33.25;;;;;11.78;61.68;99959.09;5137049;27;45467;-59
2023/04/22 05:10:10;;;;;;;;;31.25;30.00;;;;;11.61;61.93;99917.16;5134399;27;45432;-59
2023/04/22 05:12:35;;;;;;;;;32.25;29.50;;;;;11.84;62.85;99968.59;5102794;27;45275;-59
2023/04/22 05:15:01;;;;;;;;;32.75;31.25;;;;;11.79;62.69;99981.31;5121884;27;45328;-59
2023/04/22 05:17:26;;;;;;;;;29.50;29.50;;;;;11.92;62.93;100017.25;5130749;27;45603;-59
2023/04/22 05:19:51;;;;;;;;;43.25;36.50;;;;;11.94;63.63;100012.69;5134837;27;45399;-59
2023/04/22 05:22:17;;;;;;;;;37.50;33.25;;;;;11.96;63.46;100021.53;5120682;27;45553;-59
2023/04/22 05:24:43;;;;;;;;;34.00;30.75;;;;;11.96;63.69;100028.66;5125559;27;45518;-59
2023/04/22 05:27:09;;;;;;;;;32.75;29.50;;;;;11.93;63.92;100019.00;5133953;27;46116;-59
2023/04/22 05:29:35;;;;;;;;;40.50;33.50;;;;;11.92;63.88;99997.66;5136083;27;45465;-59
2023/04/22 05:32:00;;;;;;;;;43.00;36.75;;;;;11.96;63.04;100000.13;5141710;27;45516;-59
2023/04/22 05:34:26;;;;;;;;;31.25;26.25;;;;;11.84;63.52;100009.59;5139231;27;45352;-59
2023/04/22 05:36:51;;;;;;;;;38.00;33.25;;;;;11.88;63.96;100037.03;5120254;27;45456;-59
2023/04/22 05:39:18;;;;;;;;;28.25;26.50;;;;;11.91;64.42;100054.72;5133341;27;45402;-59
2023/04/22 05:41:43;;;;;;;;;35.75;32.00;;;;;11.94;64.60;100060.81;5119624;27;45324;-59
2023/04/22 05:44:09;;;;;;;;;32.00;30.25;;;;;11.93;64.60;100080.50;5120491;27;45298;-59
2023/04/22 05:46:35;;;;;;;;;36.25;32.25;;;;;11.87;64.69;100067.38;5128336;27;45501;-59
2023/04/22 05:49:00;;;;;;;;;33.00;30.75;;;;;11.98;65.67;100067.78;5137408;27;45655;-59
2023/04/22 05:51:25;;;;;;;;;39.25;33.00;;;;;11.77;64.91;100032.19;5120512;27;45384;-59
2023/04/22 05:53:51;;;;;;;;;31.50;29.00;;;;;11.90;65.53;100026.28;5101809;27;45523;-59
2023/04/22 05:56:16;;;;;;;;;35.00;33.50;;;;;11.89;65.69;100032.56;5121918;27;45417;-59
2023/04/22 05:58:42;;;;;;;;;34.50;32.75;;;;;11.91;65.50;100038.69;5108622;27;45455;-59
2023/04/22 06:01:08;;;;;;;;;35.75;33.00;;;;;11.97;65.75;100038.44;5126443;27;45648;-59
2023/04/22 06:03:33;;;;;;;;;31.50;30.50;;;;;11.98;65.85;100045.53;5120225;27;45393;-59
2023/04/22 06:05:59;;;;;;;;;32.50;32.00;;;;;11.91;66.11;100033.34;5124641;27;46154;-59
2023/04/22 06:08:24;;;;;;;;;38.50;34.75;;;;;12.00;66.74;100046.31;5130354;27;45469;-59
2023/04/22 06:10:50;;;;;;;;;35.75;33.00;;;;;11.98;66.66;100049.06;5116919;27;45499;-59
2023/04/22 06:13:16;;;;;;;;;36.00;33.00;;;;;11.97;66.64;100051.81;5120655;27;45302;-59
2023/04/22 06:15:41;;;;;;;;;41.00;35.50;;;;;12.05;67.16;100055.81;5129024;27;45673;-59
2023/04/22 06:18:06;;;;;;;;;37.75;34.00;;;;;12.05;67.17;100052.28;5133896;27;45449;-59
2023/04/22 06:20:34;;;;;;;;;30.50;29.25;;;;;12.04;67.51;100040.72;5120393;27;45582;-59
2023/04/22 06:23:00;;;;;;;;;36.75;32.50;;;;;11.98;67.23;100040.16;5133899;27;45300;-59
2023/04/22 06:25:25;;;;;;;;;34.00;30.75;;;;;12.08;67.34;100059.28;5139481;27;46317;-59
2023/04/22 06:27:51;;;;;;;;;33.50;32.00;;;;;12.03;67.35;100055.03;5140515;27;45295;-59
2023/04/22 06:30:16;;;;;;;;;40.25;34.00;;;;;12.03;67.83;100054.19;5140941;27;46039;-59
2023/04/22 06:32:42;;;;;;;;;40.00;36.00;;;;;12.10;67.92;100065.44;5122179;27;45691;-59
2023/04/22 06:35:07;;;;;;;;;39.25;35.50;;;;;12.12;67.79;100069.75;5139605;27;47042;-59
2023/04/22 06:45:19;;;;;;;;;35.25;30.25;;;;;12.15;67.83;100080.31;6011521;22;46876;-68
2023/04/22 08:27:57;;;;;;;;;30.75;29.00;;;;;12.00;73.49;100014.22;5744909;23;46172;-59
2023/04/22 08:30:23;;;;;;;;;24.00;24.00;;;;;12.04;73.45;100013.97;4970990;28;45401;-59
2023/04/22 08:32:48;;;;;;;;;29.25;27.00;;;;;12.17;73.67;100040.09;4977277;28;45721;-59
2023/04/22 08:35:14;;;;;;;;;25.00;23.00;;;;;12.25;73.61;100043.28;4965851;28;45421;-59
2023/04/22 08:37:42;;;;;;;;;28.25;26.50;;;;;12.24;73.68;100033.50;4979124;28;45674;-59
2023/04/22 08:40:08;;;;;;;;;32.25;29.75;;;;;12.48;73.70;100060.84;4962208;28;45434;-59
2023/04/22 08:42:34;;;;;;;;;30.75;28.75;;;;;12.32;73.90;100033.97;4970725;28;45347;-59
2023/04/22 08:45:02;;;;;;;;;34.50;30.00;;;;;12.25;74.28;100021.00;4980437;28;45267;-59
2023/04/22 08:47:28;;;;;;;;;28.50;27.75;;;;;12.52;74.06;100062.41;4961615;28;47997;-59
2023/04/22 08:49:54;;;;;;;;;31.00;27.25;;;;;12.36;74.48;100026.66;4960935;28;45384;-59
2023/04/22 08:52:20;;;;;;;;;31.50;28.00;;;;;12.57;75.03;100065.69;4976634;28;45258;-59
2023/04/22 08:54:45;;;;;;;;;27.75;26.75;;;;;12.35;75.41;100023.13;4942678;28;45503;-59
2023/04/22 08:57:13;;;;;;;;;31.25;28.50;;;;;12.46;75.53;100041.28;4959431;28;46500;-59
2023/04/22 08:59:40;;;;;;;;;32.00;29.25;;;;;12.59;75.87;100061.13;4943056;28;45390;-59
2023/04/22 09:02:06;;;;;;;;;28.50;26.00;;;;;12.54;75.76;100051.63;4957358;28;45711;-59
2023/04/22 09:04:32;;;;;;;;;29.50;27.75;;;;;12.54;75.95;100049.78;4960866;28;45504;-59
2023/04/22 09:07:00;;;;;;;;;24.00;21.75;;;;;12.58;76.52;100048.72;4958948;28;45677;-59
2023/04/22 09:09:27;;;;;;;;;24.25;23.75;;;;;12.58;76.51;100029.97;4959584;28;45548;-59
2023/04/22 09:11:52;;;;;;;;;25.00;24.00;;;;;12.67;76.16;100046.50;4946023;28;45372;-59
2023/04/22 09:14:19;;;;;;;;;21.75;20.25;;;;;12.72;76.66;100052.47;4970212;28;45578;-59
2023/04/22 09:16:48;;;;;;;;;27.25;24.00;;;;;12.57;77.16;100027.38;4969916;28;45649;-59
2023/04/22 09:19:14;;;;;;;;;23.00;22.50;;;;;12.59;77.31;100023.66;4968946;28;45459;-59
2023/04/22 09:21:40;;;;;;;;;24.75;21.00;;;;;12.87;76.60;100058.84;4960310;28;45402;-60
2023/04/22 09:24:07;;;;;;;;;23.00;21.50;;;;;12.79;77.81;100045.84;4976344;28;45319;-59
2023/04/22 09:26:33;;;;;;;;;23.00;19.50;;;;;13.01;77.38;100074.19;4975877;28;45398;-59
2023/04/22 09:28:59;;;;;;;;;21.00;19.50;;;;;12.75;77.50;100036.25;4958882;28;45284;-59
2023/04/22 09:31:26;;;;;;;;;27.25;26.25;;;;;13.05;77.32;100079.28;4957481;28;45662;-59
2023/04/22 09:33:55;;;;;;;;;22.50;20.50;;;;;12.80;77.79;100031.53;4957162;28;45468;-59
2023/04/22 09:36:26;;;;;;;;;19.00;18.75;;;;;13.16;77.33;100094.78;4973162;28;45735;-59
2023/04/22 09:38:56;;;;;;;;;20.50;19.25;;;;;13.18;77.63;100090.25;4970240;28;45758;-59
2023/04/22 09:41:39;;;;;;;;;18.00;17.00;;;;;13.12;77.58;100082.50;4975629;28;45423;-59
2023/04/22 09:44:26;;;;;;;;;22.50;20.00;;;;;13.32;77.93;100110.97;4975631;28;45326;-59
2023/04/22 09:46:52;;;;;;;;;16.25;15.75;;;;;13.04;77.73;100063.31;4969602;28;46231;-59
2023/04/22 09:49:20;;;;;;;;;18.50;16.50;;;;;13.20;78.31;100090.13;4965672;28;45740;-59
2023/04/22 09:51:45;;;;;;;;;14.50;14.25;;;;;13.41;78.50;100128.34;4969698;28;45511;-59
2023/04/22 09:54:11;;;;;;;;;14.50;12.25;;;;;13.24;78.40;100103.28;4976091;28;45532;-59
2023/04/22 09:56:40;;;;;;;;;13.75;13.75;;;;;13.27;77.66;100105.81;4958631;28;47024;-59
2023/04/22 09:59:07;;;;;;;;;17.25;15.75;;;;;13.20;78.10;100092.81;4955460;28;45527;-60
2023/04/22 10:01:38;;;;;;;;;13.50;12.00;;;;;13.22;77.90;100102.50;4971057;28;45340;-59
2023/04/22 10:04:03;;;;;;;;;13.50;13.50;;;;;13.39;78.38;100123.06;4968401;28;45587;-60
2023/04/22 10:06:30;;;;;;;;;15.25;13.50;;;;;13.43;78.34;100118.41;4959161;28;46066;-59
2023/04/22 10:08:58;;;;;;;;;11.25;10.75;;;;;13.60;77.98;100144.28;4971553;28;45249;-59
2023/04/22 10:11:23;;;;;;;;;12.00;10.00;;;;;13.52;78.06;100126.81;4958731;28;45410;-59
2023/04/22 10:13:49;;;;;;;;;14.25;13.00;;;;;13.43;77.92;100105.88;4977841;28;45389;-59
2023/04/22 10:16:15;;;;;;;;;12.25;12.25;;;;;13.51;78.01;100110.81;4955657;28;47470;-59
2023/04/22 10:18:41;;;;;;;;;8.00;8.00;;;;;13.69;77.85;100144.66;4969636;28;45509;-59
2023/04/22 10:21:06;;;;;;;;;11.00;10.00;;;;;13.53;77.78;100119.63;4960892;28;45525;-59
2023/04/22 10:23:32;;;;;;;;;10.00;10.00;;;;;13.69;77.48;100138.44;4948823;28;45455;-59
2023/04/22 10:25:58;;;;;;;;;11.25;10.00;;;;;13.70;77.77;100130.31;4969214;28;45372;-59
2023/04/22 10:28:28;;;;;;;;;13.50;12.25;;;;;13.56;77.36;100107.88;4951729;28;45549;-59
2023/04/22 10:30:54;;;;;;;;;11.25;10.50;;;;;13.85;77.21;100162.63;4946926;28;45382;-59
2023/04/22 10:33:20;;;;;;;;;15.75;11.75;;;;;13.89;77.06;100167.72;4954613;28;45459;-59
2023/04/22 10:36:04;;;;;;;;;16.75;12.25;;;;;13.89;77.36;100173.06;4947844;28;45883;-59
2023/04/22 10:38:33;;;;;;;;;12.75;11.75;;;;;13.51;76.92;100111.69;4944426;28;45432;-59
2023/04/22 10:40:59;;;;;;;;;15.00;12.50;;;;;13.65;76.92;100129.72;4939935;28;45477;-59
2023/04/22 10:43:48;;;;;;;;;15.00;14.00;;;;;13.94;77.19;100177.34;4940079;28;45504;-60
2023/04/22 10:46:33;;;;;;;;;15.50;15.50;;;;;13.95;76.97;100177.25;4956734;28;46191;-60
2023/04/22 10:49:05;;;;;;;;;15.50;14.50;;;;;13.63;75.99;100130.72;4956352;28;45334;-60
2023/04/22 10:51:48;;;;;;;;;17.75;15.50;;;;;13.93;76.60;100191.69;4953589;28;45342;-60
2023/04/22 10:54:26;;;;;;;;;16.50;16.50;;;;;13.98;76.22;100203.91;4949652;28;45492;-60
2023/04/22 10:57:04;;;;;;;;;17.50;16.25;;;;;13.97;76.31;100212.06;4962677;28;46129;-60
2023/04/22 10:59:31;;;;;;;;;15.25;13.75;;;;;13.98;75.81;100211.09;4942163;28;45711;-59
2023/04/22 11:02:04;;;;;;;;;11.50;11.25;;;;;13.80;75.41;100181.66;4955607;28;45429;-60
2023/04/22 11:04:30;;;;;;;;;15.50;15.50;;;;;13.68;75.50;100167.09;4948681;28;45704;-60
2023/04/22 11:07:29;;;;;;;;;14.25;13.75;;;;;14.00;74.89;100226.16;4953881;28;46364;-60
2023/04/22 11:10:01;;;;;;;;;15.50;15.50;;;;;13.94;75.32;100222.94;4949959;28;45339;-60
2023/04/22 11:12:38;;;;;;;;;15.50;15.00;;;;;14.01;75.50;100241.28;4944826;28;45401;-60
2023/04/22 11:15:08;;;;;;;;;16.00;16.00;;;;;13.92;75.46;100235.59;4959284;28;45835;-60
2023/04/22 11:17:35;;;;;;;;;14.00;13.50;;;;;13.70;75.30;100197.38;4966989;28;47397;-60
2023/04/22 11:20:02;;;;;;;;;16.25;15.25;;;;;13.98;74.85;100244.19;4943079;28;45562;-60
2023/04/22 11:22:33;;;;;;;;;16.00;14.00;;;;;13.96;75.30;100242.50;4955553;28;45430;-60
2023/04/22 11:24:59;;;;;;;;;15.75;15.00;;;;;13.81;75.47;100217.38;4943079;28;45356;-60
2023/04/22 11:27:26;;;;;;;;;15.75;15.00;;;;;13.80;75.40;100219.19;4958695;28;47485;-60
2023/04/22 11:30:08;;;;;;;;;14.25;14.25;;;;;14.02;75.17;100256.47;4944916;28;45443;-60
2023/04/22 11:32:38;;;;;;;;;16.50;15.75;;;;;13.84;74.82;100227.94;4974918;28;45322;-60
2023/04/22 11:35:07;;;;;;;;;15.50;14.50;;;;;13.77;75.08;100218.50;4980202;28;45452;-60
2023/04/22 11:37:48;;;;;;;;;19.25;14.00;;;;;13.85;74.38;100235.91;4974578;28;46246;-60
2023/04/22 11:40:20;;;;;;;;;18.00;16.25;;;;;13.88;74.87;100232.19;4978772;28;45796;-60
2023/04/22 11:42:47;;;;;;;;;18.50;17.00;;;;;14.06;74.67;100268.75;4945146;28;45556;-59
2023/04/22 11:45:13;;;;;;;;;19.50;17.75;;;;;14.06;74.80;100271.44;4974814;28;45579;-60
2023/04/22 11:47:40;;;;;;;;;13.50;13.50;;;;;13.89;74.23;100250.03;4961991;28;46578;-60
2023/04/22 11:50:10;;;;;;;;;18.00;18.00;;;;;13.94;74.49;100255.16;4961696;28;45513;-60
2023/04/22 11:52:49;;;;;;;;;18.75;17.50;;;;;14.00;74.49;100269.09;4979263;28;45413;-60
2023/04/22 11:55:22;;;;;;;;;16.75;16.75;;;;;13.95;74.19;100254.19;4944194;28;45384;-60
2023/04/22 11:58:15;;;;;;;;;16.50;16.00;;;;;14.15;74.34;100282.63;4960803;28;45655;-60
2023/04/22 12:00:49;;;;;;;;;21.50;18.25;;;;;14.17;74.42;100297.69;4953170;28;46052;-60
2023/04/22 12:03:17;;;;;;;;;20.75;17.00;;;;;14.12;74.57;100277.44;4976611;28;45362;-59
2023/04/22 12:05:50;;;;;;;;;20.00;19.00;;;;;14.02;74.19;100263.66;4961723;28;45621;-60
2023/04/22 12:08:40;;;;;;;;;22.50;21.00;;;;;13.92;73.76;100246.31;4962624;28;46904;-60
2023/04/22 12:11:08;;;;;;;;;18.50;16.75;;;;;13.96;73.88;100272.03;4968858;28;45491;-60
2023/04/22 12:13:41;;;;;;;;;28.75;25.50;;;;;13.93;74.01;100269.50;4961892;28;45515;-60
2023/04/22 12:16:16;;;;;;;;;23.00;19.50;;;;;13.99;73.93;100277.22;4968938;28;45641;-60
2023/04/22 12:18:50;;;;;;;;;18.25;18.00;;;;;14.16;73.90;100306.69;4968725;28;45347;-60
2023/04/22 12:21:22;;;;;;;;;23.00;21.25;;;;;13.99;74.43;100291.50;4944034;28;45391;-60
2023/04/22 12:24:04;;;;;;;;;23.50;22.25;;;;;14.15;74.52;100321.09;4962072;28;46190;-60
2023/04/22 12:26:30;;;;;;;;;24.00;22.50;;;;;14.17;74.24;100323.69;4971003;28;45265;-60
2023/04/22 12:28:57;;;;;;;;;23.25;21.50;;;;;14.02;73.84;100296.72;4960995;28;46425;-60
2023/04/22 12:31:23;;;;;;;;;18.00;17.00;;;;;14.12;74.26;100306.97;4965814;28;45481;-60
2023/04/22 12:33:48;;;;;;;;;25.25;23.75;;;;;13.93;73.78;100278.41;4957011;28;45521;-60
2023/04/22 12:36:15;;;;;;;;;22.75;20.75;;;;;13.97;73.79;100282.69;4960784;28;45389;-60
2023/04/22 12:38:40;;;;;;;;;21.00;21.00;;;;;14.15;73.97;100304.09;4951250;28;47309;-60
2023/04/22 12:41:07;;;;;;;;;26.00;23.25;;;;;14.26;73.95;100315.97;4974341;28;45441;-59
2023/04/22 12:43:35;;;;;;;;;24.25;24.00;;;;;14.21;74.07;100306.44;4971498;28;45667;-60
2023/04/22 12:46:01;;;;;;;;;26.75;24.75;;;;;14.26;74.11;100317.81;4980497;28;45523;-60
2023/04/22 12:48:26;;;;;;;;;23.75;21.50;;;;;14.15;74.22;100294.25;4962915;28;45494;-60
2023/04/22 12:50:52;;;;;;;;;19.75;18.50;;;;;14.32;74.18;100322.00;4961558;28;45619;-60
2023/04/22 12:53:20;;;;;;;;;23.25;22.00;;;;;14.42;73.84;100334.81;4975949;28;45460;-60
2023/04/22 12:55:45;;;;;;;;;18.00;17.50;;;;;14.36;73.81;100321.72;4959922;28;45807;-60
2023/04/22 12:58:11;;;;;;;;;21.00;18.75;;;;;14.51;73.78;100336.13;4960317;28;45434;-60